sensor_id;sensor_type;location;lat;lon;timestamp;pressure;altitude;pressure_sealevel;temperature;humidity
79123;BME280;68526;44.600;26.032;2024-01-27T00:00:10;100943.16;;;-0.98;76.98
79123;BME280;68526;44.600;26.032;2024-01-27T00:00:26;100945.84;;;-0.98;77.34
79123;BME280;68526;44.600;26.032;2024-01-27T00:00:42;100950.19;;;-0.97;77.32
79123;BME280;68526;44.600;26.032;2024-01-27T00:00:58;100947.97;;;-1.00;77.15
79123;BME280;68526;44.600;26.032;2024-01-27T00:01:15;100952.28;;;-0.99;77.22
79123;BME280;68526;44.600;26.032;2024-01-27T00:01:31;100945.63;;;-0.97;77.16
79123;BME280;68526;44.600;26.032;2024-01-27T00:01:47;100948.06;;;-0.95;77.17
79123;BME280;68526;44.600;26.032;2024-01-27T00:02:03;100946.44;;;-0.96;77.52
79123;BME280;68526;44.600;26.032;2024-01-27T00:02:18;100944.78;;;-0.97;77.61
79123;BME280;68526;44.600;26.032;2024-01-27T00:02:34;100944.78;;;-0.97;77.58
79123;BME280;68526;44.600;26.032;2024-01-27T00:02:51;100941.28;;;-0.98;77.43
79123;BME280;68526;44.600;26.032;2024-01-27T00:03:08;100951.81;;;-0.96;77.62
79123;BME280;68526;44.600;26.032;2024-01-27T00:03:24;100945.84;;;-0.98;77.74
79123;BME280;68526;44.600;26.032;2024-01-27T00:03:40;100948.53;;;-0.98;77.58
79123;BME280;68526;44.600;26.032;2024-01-27T00:03:55;100947.13;;;-1.01;77.72
79123;BME280;68526;44.600;26.032;2024-01-27T00:04:12;100944.41;;;-1.01;77.66
79123;BME280;68526;44.600;26.032;2024-01-27T00:04:27;100946.28;;;-1.01;77.95
79123;BME280;68526;44.600;26.032;2024-01-27T00:04:43;100947.13;;;-1.01;77.91
79123;BME280;68526;44.600;26.032;2024-01-27T00:05:00;100953.34;;;-1.00;77.82
79123;BME280;68526;44.600;26.032;2024-01-27T00:05:18;100947.72;;;-0.99;77.81
79123;BME280;68526;44.600;26.032;2024-01-27T00:05:34;100945.84;;;-0.98;77.92
79123;BME280;68526;44.600;26.032;2024-01-27T00:05:49;100952.06;;;-0.98;78.08
79123;BME280;68526;44.600;26.032;2024-01-27T00:06:05;100946.28;;;-1.01;77.73
79123;BME280;68526;44.600;26.032;2024-01-27T00:06:21;100946.44;;;-0.96;77.79
79123;BME280;68526;44.600;26.032;2024-01-27T00:06:37;100950.75;;;-0.95;78.02
79123;BME280;68526;44.600;26.032;2024-01-27T00:06:54;100949.75;;;-0.94;77.57
79123;BME280;68526;44.600;26.032;2024-01-27T00:07:10;100952.06;;;-0.98;77.98
79123;BME280;68526;44.600;26.032;2024-01-27T00:07:26;100947.25;;;-0.96;78.14
79123;BME280;68526;44.600;26.032;2024-01-27T00:07:43;100942.94;;;-0.97;77.89
79123;BME280;68526;44.600;26.032;2024-01-27T00:07:59;100949.75;;;-0.94;77.97
79123;BME280;68526;44.600;26.032;2024-01-27T00:08:15;100944.56;;;-0.96;78.26
79123;BME280;68526;44.600;26.032;2024-01-27T00:08:31;100944.78;;;-0.97;78.32
79123;BME280;68526;44.600;26.032;2024-01-27T00:08:48;100947.88;;;-0.94;78.05
79123;BME280;68526;44.600;26.032;2024-01-27T00:09:04;100945.16;;;-0.94;78.10
79123;BME280;68526;44.600;26.032;2024-01-27T00:09:21;100939.78;;;-0.94;78.23
79123;BME280;68526;44.600;26.032;2024-01-27T00:09:37;100947.88;;;-0.94;78.19
79123;BME280;68526;44.600;26.032;2024-01-27T00:09:53;100942.69;;;-0.95;78.26
79123;BME280;68526;44.600;26.032;2024-01-27T00:10:09;100939.56;;;-0.92;78.22
79123;BME280;68526;44.600;26.032;2024-01-27T00:10:26;100947.88;;;-0.94;78.19
79123;BME280;68526;44.600;26.032;2024-01-27T00:10:42;100938.97;;;-0.94;78.00
79123;BME280;68526;44.600;26.032;2024-01-27T00:10:58;100948.69;;;-0.93;78.30
79123;BME280;68526;44.600;26.032;2024-01-27T00:11:14;100943.06;;;-0.92;78.08
79123;BME280;68526;44.600;26.032;2024-01-27T00:11:29;100939.56;;;-0.92;78.16
79123;BME280;68526;44.600;26.032;2024-01-27T00:11:45;100935.47;;;-0.95;78.06
79123;BME280;68526;44.600;26.032;2024-01-27T00:12:03;100946.13;;;-0.88;78.09
79123;BME280;68526;44.600;26.032;2024-01-27T00:12:19;100949.63;;;-0.88;77.67
79123;BME280;68526;44.600;26.032;2024-01-27T00:12:36;100946.13;;;-0.88;77.93
79123;BME280;68526;44.600;26.032;2024-01-27T00:12:52;100934.56;;;-0.89;77.94
79123;BME280;68526;44.600;26.032;2024-01-27T00:13:08;100945.06;;;-0.87;77.92
79123;BME280;68526;44.600;26.032;2024-01-27T00:13:24;100943.44;;;-0.88;78.00
79123;BME280;68526;44.600;26.032;2024-01-27T00:13:39;100939.94;;;-0.89;78.15
79123;BME280;68526;44.600;26.032;2024-01-27T00:13:56;100935.94;;;-0.86;78.07
79123;BME280;68526;44.600;26.032;2024-01-27T00:14:12;100942.38;;;-0.87;78.04
79123;BME280;68526;44.600;26.032;2024-01-27T00:14:28;100935.38;;;-0.88;78.21
79123;BME280;68526;44.600;26.032;2024-01-27T00:14:44;100938.88;;;-0.88;78.25
79123;BME280;68526;44.600;26.032;2024-01-27T00:15:00;100942.38;;;-0.87;78.06
79123;BME280;68526;44.600;26.032;2024-01-27T00:15:16;100938.88;;;-0.88;78.28
79123;BME280;68526;44.600;26.032;2024-01-27T00:15:32;100940.13;;;-0.90;78.35
79123;BME280;68526;44.600;26.032;2024-01-27T00:15:49;100936.41;;;-0.89;78.37
79123;BME280;68526;44.600;26.032;2024-01-27T00:16:06;100938.88;;;-0.88;78.02
79123;BME280;68526;44.600;26.032;2024-01-27T00:16:22;100941.09;;;-0.85;78.00
79123;BME280;68526;44.600;26.032;2024-01-27T00:16:37;100940.03;;;-0.84;77.98
79123;BME280;68526;44.600;26.032;2024-01-27T00:16:53;100937.25;;;-0.89;78.21
79123;BME280;68526;44.600;26.032;2024-01-27T00:17:09;100936.63;;;-0.91;78.14
79123;BME280;68526;44.600;26.032;2024-01-27T00:17:25;100930.44;;;-0.91;78.11
79123;BME280;68526;44.600;26.032;2024-01-27T00:17:43;100927.88;;;-0.86;78.16
79123;BME280;68526;44.600;26.032;2024-01-27T00:17:59;100937.59;;;-0.85;77.97
79123;BME280;68526;44.600;26.032;2024-01-27T00:18:15;100925.75;;;-0.84;78.12
79123;BME280;68526;44.600;26.032;2024-01-27T00:18:31;100936.53;;;-0.84;78.25
79123;BME280;68526;44.600;26.032;2024-01-27T00:18:47;100931.16;;;-0.84;78.19
79123;BME280;68526;44.600;26.032;2024-01-27T00:19:03;100939.81;;;-0.82;77.84
79123;BME280;68526;44.600;26.032;2024-01-27T00:19:19;100933.38;;;-0.81;77.89
79123;BME280;68526;44.600;26.032;2024-01-27T00:19:35;100930.69;;;-0.81;77.90
79123;BME280;68526;44.600;26.032;2024-01-27T00:19:52;100936.66;;;-0.79;77.89
79123;BME280;68526;44.600;26.032;2024-01-27T00:20:08;100929.50;;;-0.85;77.92
79123;BME280;68526;44.600;26.032;2024-01-27T00:20:26;100926.00;;;-0.86;77.95
79123;BME280;68526;44.600;26.032;2024-01-27T00:20:42;100940.28;;;-0.85;78.07
79123;BME280;68526;44.600;26.032;2024-01-27T00:20:57;100937.34;;;-0.84;77.76
79123;BME280;68526;44.600;26.032;2024-01-27T00:21:13;100932.78;;;-0.83;77.86
79123;BME280;68526;44.600;26.032;2024-01-27T00:21:29;100926.81;;;-0.85;77.94
79123;BME280;68526;44.600;26.032;2024-01-27T00:21:45;100932.56;;;-0.82;77.87
79123;BME280;68526;44.600;26.032;2024-01-27T00:22:02;100932.34;;;-0.80;77.91
79123;BME280;68526;44.600;26.032;2024-01-27T00:22:18;100934.78;;;-0.78;77.72
79123;BME280;68526;44.600;26.032;2024-01-27T00:22:36;100926.72;;;-0.78;77.45
79123;BME280;68526;44.600;26.032;2024-01-27T00:22:52;100933.97;;;-0.79;77.96
79123;BME280;68526;44.600;26.032;2024-01-27T00:23:08;100930.69;;;-0.81;77.57
79123;BME280;68526;44.600;26.032;2024-01-27T00:23:23;100929.66;;;-0.80;77.85
79123;BME280;68526;44.600;26.032;2024-01-27T00:23:39;100928.81;;;-0.81;77.61
79123;BME280;68526;44.600;26.032;2024-01-27T00:23:56;100925.91;;;-0.79;77.39
79123;BME280;68526;44.600;26.032;2024-01-27T00:24:16;100931.28;;;-0.79;77.47
79123;BME280;68526;44.600;26.032;2024-01-27T00:24:32;100920.75;;;-0.81;77.59
79123;BME280;68526;44.600;26.032;2024-01-27T00:24:48;100925.31;;;-0.81;77.43
79123;BME280;68526;44.600;26.032;2024-01-27T00:25:05;100929.06;;;-0.82;77.58
79123;BME280;68526;44.600;26.032;2024-01-27T00:25:21;100925.19;;;-0.86;77.69
79123;BME280;68526;44.600;26.032;2024-01-27T00:25:37;100926.69;;;-0.90;77.44
79123;BME280;68526;44.600;26.032;2024-01-27T00:25:53;100924.22;;;-0.92;77.24
79123;BME280;68526;44.600;26.032;2024-01-27T00:26:09;100924.72;;;-0.95;77.27
79123;BME280;68526;44.600;26.032;2024-01-27T00:26:26;100921.16;;;-0.95;77.39
79123;BME280;68526;44.600;26.032;2024-01-27T00:26:43;100923.03;;;-0.96;77.71
79123;BME280;68526;44.600;26.032;2024-01-27T00:26:59;100915.91;;;-1.02;77.62
79123;BME280;68526;44.600;26.032;2024-01-27T00:27:15;100921.28;;;-1.02;77.78
79123;BME280;68526;44.600;26.032;2024-01-27T00:27:31;100917.53;;;-1.01;77.69
79123;BME280;68526;44.600;26.032;2024-01-27T00:27:48;100918.00;;;-1.04;77.68
79123;BME280;68526;44.600;26.032;2024-01-27T00:28:04;100914.94;;;-1.08;78.03
79123;BME280;68526;44.600;26.032;2024-01-27T00:28:21;100925.59;;;-1.13;78.03
79123;BME280;68526;44.600;26.032;2024-01-27T00:28:37;100903.94;;;-1.18;77.98
79123;BME280;68526;44.600;26.032;2024-01-27T00:28:53;100912.81;;;-1.17;78.29
79123;BME280;68526;44.600;26.032;2024-01-27T00:29:09;100917.72;;;-1.14;78.01
79123;BME280;68526;44.600;26.032;2024-01-27T00:29:25;100912.34;;;-1.14;78.01
79123;BME280;68526;44.600;26.032;2024-01-27T00:29:41;100912.34;;;-1.14;77.82
79123;BME280;68526;44.600;26.032;2024-01-27T00:29:57;100918.53;;;-1.14;77.99
79123;BME280;68526;44.600;26.032;2024-01-27T00:30:13;100913.41;;;-1.15;78.24
79123;BME280;68526;44.600;26.032;2024-01-27T00:30:30;100908.50;;;-1.18;78.50
79123;BME280;68526;44.600;26.032;2024-01-27T00:30:46;100911.19;;;-1.18;78.77
79123;BME280;68526;44.600;26.032;2024-01-27T00:31:02;100909.53;;;-1.19;78.51
79123;BME280;68526;44.600;26.032;2024-01-27T00:31:18;100900.06;;;-1.22;78.64
79123;BME280;68526;44.600;26.032;2024-01-27T00:31:33;100908.13;;;-1.22;78.69
79123;BME280;68526;44.600;26.032;2024-01-27T00:31:49;100906.25;;;-1.21;78.54
79123;BME280;68526;44.600;26.032;2024-01-27T00:32:06;100901.13;;;-1.23;78.45
79123;BME280;68526;44.600;26.032;2024-01-27T00:32:23;100904.03;;;-1.24;78.55
79123;BME280;68526;44.600;26.032;2024-01-27T00:32:38;100900.16;;;-1.28;79.13
79123;BME280;68526;44.600;26.032;2024-01-27T00:32:54;100907.63;;;-1.30;79.35
79123;BME280;68526;44.600;26.032;2024-01-27T00:33:10;100896.28;;;-1.32;78.93
79123;BME280;68526;44.600;26.032;2024-01-27T00:33:26;100894.41;;;-1.32;78.84
79123;BME280;68526;44.600;26.032;2024-01-27T00:33:42;100899.78;;;-1.32;79.03
79123;BME280;68526;44.600;26.032;2024-01-27T00:33:58;100894.88;;;-1.35;78.91
79123;BME280;68526;44.600;26.032;2024-01-27T00:34:14;100898.97;;;-1.32;78.97
79123;BME280;68526;44.600;26.032;2024-01-27T00:34:31;100895.22;;;-1.31;78.77
79123;BME280;68526;44.600;26.032;2024-01-27T00:34:47;100892.19;;;-1.35;78.59
79123;BME280;68526;44.600;26.032;2024-01-27T00:35:03;100896.75;;;-1.36;78.78
79123;BME280;68526;44.600;26.032;2024-01-27T00:35:19;100888.44;;;-1.34;78.74
79123;BME280;68526;44.600;26.032;2024-01-27T00:35:37;100892.19;;;-1.35;78.68
79123;BME280;68526;44.600;26.032;2024-01-27T00:35:53;100893.00;;;-1.35;79.07
79123;BME280;68526;44.600;26.032;2024-01-27T00:36:10;100889.50;;;-1.35;79.17
79123;BME280;68526;44.600;26.032;2024-01-27T00:36:27;100886.56;;;-1.33;78.98
79123;BME280;68526;44.600;26.032;2024-01-27T00:36:42;100887.63;;;-1.35;79.11
79123;BME280;68526;44.600;26.032;2024-01-27T00:37:04;100891.94;;;-1.33;78.89
79123;BME280;68526;44.600;26.032;2024-01-27T00:37:19;100894.63;;;-1.33;79.04
79123;BME280;68526;44.600;26.032;2024-01-27T00:37:35;100887.63;;;-1.35;79.27
79123;BME280;68526;44.600;26.032;2024-01-27T00:37:52;100888.69;;;-1.36;79.30
79123;BME280;68526;44.600;26.032;2024-01-27T00:38:08;100888.44;;;-1.34;79.27
79123;BME280;68526;44.600;26.032;2024-01-27T00:38:25;100892.78;;;-1.33;79.35
79123;BME280;68526;44.600;26.032;2024-01-27T00:38:41;100886.56;;;-1.33;79.21
79123;BME280;68526;44.600;26.032;2024-01-27T00:38:57;100877.69;;;-1.34;78.85
79123;BME280;68526;44.600;26.032;2024-01-27T00:39:13;100886.56;;;-1.33;79.16
79123;BME280;68526;44.600;26.032;2024-01-27T00:39:31;100886.34;;;-1.32;78.91
79123;BME280;68526;44.600;26.032;2024-01-27T00:39:47;100883.31;;;-1.36;79.24
79123;BME280;68526;44.600;26.032;2024-01-27T00:40:05;100891.38;;;-1.36;79.23
79123;BME280;68526;44.600;26.032;2024-01-27T00:40:22;100891.13;;;-1.34;79.55
79123;BME280;68526;44.600;26.032;2024-01-27T00:40:38;100885.38;;;-1.38;79.48
79123;BME280;68526;44.600;26.032;2024-01-27T00:40:54;100881.06;;;-1.39;79.65
79123;BME280;68526;44.600;26.032;2024-01-27T00:41:16;100883.50;;;-1.37;79.86
79123;BME280;68526;44.600;26.032;2024-01-27T00:41:32;100883.75;;;-1.39;79.62
79123;BME280;68526;44.600;26.032;2024-01-27T00:41:47;100885.63;;;-1.39;79.43
79123;BME280;68526;44.600;26.032;2024-01-27T00:42:04;100884.00;;;-1.40;79.49
79123;BME280;68526;44.600;26.032;2024-01-27T00:42:20;100884.22;;;-1.42;79.72
79123;BME280;68526;44.600;26.032;2024-01-27T00:42:40;100879.44;;;-1.40;79.58
79123;BME280;68526;44.600;26.032;2024-01-27T00:42:56;100881.88;;;-1.38;79.54
79123;BME280;68526;44.600;26.032;2024-01-27T00:43:12;100884.81;;;-1.40;79.51
79123;BME280;68526;44.600;26.032;2024-01-27T00:43:28;100884.00;;;-1.40;79.45
79123;BME280;68526;44.600;26.032;2024-01-27T00:43:45;100885.03;;;-1.41;79.55
79123;BME280;68526;44.600;26.032;2024-01-27T00:44:01;100856.09;;;-1.57;79.35
79123;BME280;68526;44.600;26.032;2024-01-27T00:44:18;100882.34;;;-1.41;79.57
79123;BME280;68526;44.600;26.032;2024-01-27T00:44:34;100878.59;;;-1.40;79.42
79123;BME280;68526;44.600;26.032;2024-01-27T00:44:50;100876.16;;;-1.42;79.48
79123;BME280;68526;44.600;26.032;2024-01-27T00:45:07;100881.97;;;-1.45;79.61
79123;BME280;68526;44.600;26.032;2024-01-27T00:45:23;100874.16;;;-1.46;79.72
79123;BME280;68526;44.600;26.032;2024-01-27T00:45:39;100884.81;;;-1.40;79.56
79123;BME280;68526;44.600;26.032;2024-01-27T00:45:55;100880.72;;;-1.42;79.33
79123;BME280;68526;44.600;26.032;2024-01-27T00:46:12;100886.44;;;-1.39;79.37
79123;BME280;68526;44.600;26.032;2024-01-27T00:46:27;100879.66;;;-1.41;79.49
79123;BME280;68526;44.600;26.032;2024-01-27T00:46:43;100882.13;;;-1.40;79.46
79123;BME280;68526;44.600;26.032;2024-01-27T00:46:59;100885.84;;;-1.41;79.77
79123;BME280;68526;44.600;26.032;2024-01-27T00:47:15;100885.03;;;-1.41;79.90
79123;BME280;68526;44.600;26.032;2024-01-27T00:47:31;100886.91;;;-1.42;79.91
79123;BME280;68526;44.600;26.032;2024-01-27T00:47:47;100881.53;;;-1.42;80.01
79123;BME280;68526;44.600;26.032;2024-01-27T00:48:04;100884.22;;;-1.42;80.10
79123;BME280;68526;44.600;26.032;2024-01-27T00:48:20;100893.09;;;-1.41;80.10
79123;BME280;68526;44.600;26.032;2024-01-27T00:48:36;100888.53;;;-1.41;79.82
79123;BME280;68526;44.600;26.032;2024-01-27T00:48:52;100891.00;;;-1.39;80.10
79123;BME280;68526;44.600;26.032;2024-01-27T00:49:08;100886.09;;;-1.42;80.10
79123;BME280;68526;44.600;26.032;2024-01-27T00:49:24;100890.19;;;-1.40;80.11
79123;BME280;68526;44.600;26.032;2024-01-27T00:49:40;100898.47;;;-1.41;79.81
79123;BME280;68526;44.600;26.032;2024-01-27T00:49:57;100891.47;;;-1.42;80.00
79123;BME280;68526;44.600;26.032;2024-01-27T00:50:13;100894.50;;;-1.39;80.12
79123;BME280;68526;44.600;26.032;2024-01-27T00:50:29;100890.75;;;-1.38;80.12
79123;BME280;68526;44.600;26.032;2024-01-27T00:50:46;100888.69;;;-1.36;79.79
79123;BME280;68526;44.600;26.032;2024-01-27T00:51:02;100886.81;;;-1.35;80.04
79123;BME280;68526;44.600;26.032;2024-01-27T00:51:18;100895.47;;;-1.33;79.73
79123;BME280;68526;44.600;26.032;2024-01-27T00:51:34;100897.09;;;-1.32;80.22
79123;BME280;68526;44.600;26.032;2024-01-27T00:51:50;100895.47;;;-1.33;80.15
79123;BME280;68526;44.600;26.032;2024-01-27T00:52:07;100894.41;;;-1.32;80.38
79123;BME280;68526;44.600;26.032;2024-01-27T00:52:23;100894.63;;;-1.33;80.41
79123;BME280;68526;44.600;26.032;2024-01-27T00:52:39;100899.19;;;-1.34;80.18
79123;BME280;68526;44.600;26.032;2024-01-27T00:52:55;100898.97;;;-1.32;80.36
79123;BME280;68526;44.600;26.032;2024-01-27T00:53:11;100890.91;;;-1.32;80.40
79123;BME280;68526;44.600;26.032;2024-01-27T00:53:27;100895.00;;;-1.30;80.26
79123;BME280;68526;44.600;26.032;2024-01-27T00:53:43;100888.59;;;-1.29;79.91
79123;BME280;68526;44.600;26.032;2024-01-27T00:53:59;100884.84;;;-1.28;79.99
79123;BME280;68526;44.600;26.032;2024-01-27T00:54:15;100894.53;;;-1.27;80.00
79123;BME280;68526;44.600;26.032;2024-01-27T00:54:31;100892.91;;;-1.28;80.32
79123;BME280;68526;44.600;26.032;2024-01-27T00:54:47;100895.38;;;-1.26;80.38
79123;BME280;68526;44.600;26.032;2024-01-27T00:55:04;100891.28;;;-1.29;80.45
79123;BME280;68526;44.600;26.032;2024-01-27T00:55:20;100894.19;;;-1.30;80.44
79123;BME280;68526;44.600;26.032;2024-01-27T00:55:37;100893.72;;;-1.27;80.21
79123;BME280;68526;44.600;26.032;2024-01-27T00:55:53;100892.69;;;-1.26;80.34
79123;BME280;68526;44.600;26.032;2024-01-27T00:56:09;100892.44;;;-1.25;80.30
79123;BME280;68526;44.600;26.032;2024-01-27T00:56:25;100892.69;;;-1.26;80.07
79123;BME280;68526;44.600;26.032;2024-01-27T00:56:41;100897.22;;;-1.27;80.29
79123;BME280;68526;44.600;26.032;2024-01-27T00:56:56;100892.09;;;-1.28;80.44
79123;BME280;68526;44.600;26.032;2024-01-27T00:57:12;100880.38;;;-1.34;80.04
79123;BME280;68526;44.600;26.032;2024-01-27T00:57:28;100891.19;;;-1.22;80.19
79123;BME280;68526;44.600;26.032;2024-01-27T00:57:45;100887.06;;;-1.25;79.73
79123;BME280;68526;44.600;26.032;2024-01-27T00:58:01;100891.53;;;-1.19;79.97
79123;BME280;68526;44.600;26.032;2024-01-27T00:58:17;100893.38;;;-1.19;79.72
79123;BME280;68526;44.600;26.032;2024-01-27T00:58:33;100894.22;;;-1.19;79.98
79123;BME280;68526;44.600;26.032;2024-01-27T00:58:50;100894.00;;;-1.17;80.03
79123;BME280;68526;44.600;26.032;2024-01-27T00:59:05;100895.06;;;-1.18;79.77
79123;BME280;68526;44.600;26.032;2024-01-27T00:59:22;100896.69;;;-1.17;80.19
79123;BME280;68526;44.600;26.032;2024-01-27T00:59:38;100897.13;;;-1.20;80.04
79123;BME280;68526;44.600;26.032;2024-01-27T00:59:54;100899.59;;;-1.19;80.06
79123;BME280;68526;44.600;26.032;2024-01-27T01:00:11;100893.38;;;-1.19;80.05
79123;BME280;68526;44.600;26.032;2024-01-27T01:00:27;100893.19;;;-1.18;79.97
79123;BME280;68526;44.600;26.032;2024-01-27T01:00:43;100899.72;;;-1.14;79.96
79123;BME280;68526;44.600;26.032;2024-01-27T01:00:59;100907.22;;;-1.16;79.95
79123;BME280;68526;44.600;26.032;2024-01-27T01:01:16;100896.47;;;-1.16;79.97
79123;BME280;68526;44.600;26.032;2024-01-27T01:01:32;100902.22;;;-1.12;80.13
79123;BME280;68526;44.600;26.032;2024-01-27T01:01:48;100897.84;;;-1.13;79.99
79123;BME280;68526;44.600;26.032;2024-01-27T01:02:05;100908.59;;;-1.13;79.85
79123;BME280;68526;44.600;26.032;2024-01-27T01:02:20;100894.97;;;-1.12;79.78
79123;BME280;68526;44.600;26.032;2024-01-27T01:02:37;100896.22;;;-1.14;79.89
79123;BME280;68526;44.600;26.032;2024-01-27T01:02:54;100899.81;;;-1.20;80.11
79123;BME280;68526;44.600;26.032;2024-01-27T01:03:10;100901.13;;;-1.23;80.21
79123;BME280;68526;44.600;26.032;2024-01-27T01:03:25;100900.44;;;-1.18;80.14
79123;BME280;68526;44.600;26.032;2024-01-27T01:03:41;100905.09;;;-1.14;79.81
79123;BME280;68526;44.600;26.032;2024-01-27T01:03:57;100903.84;;;-1.11;79.66
79123;BME280;68526;44.600;26.032;2024-01-27T01:04:13;100903.59;;;-1.10;79.82
79123;BME280;68526;44.600;26.032;2024-01-27T01:04:29;100902.56;;;-1.09;79.53
79123;BME280;68526;44.600;26.032;2024-01-27T01:04:45;100901.50;;;-1.08;79.66
79123;BME280;68526;44.600;26.032;2024-01-27T01:05:04;100891.44;;;-1.12;79.87
79123;BME280;68526;44.600;26.032;2024-01-27T01:05:20;100908.31;;;-1.05;79.59
79123;BME280;68526;44.600;26.032;2024-01-27T01:05:36;100899.88;;;-1.09;79.88
79123;BME280;68526;44.600;26.032;2024-01-27T01:05:54;100899.88;;;-1.09;79.88
79123;BME280;68526;44.600;26.032;2024-01-27T01:06:09;100898.22;;;-1.10;80.11
79123;BME280;68526;44.600;26.032;2024-01-27T01:06:25;100888.06;;;-1.08;80.00
79123;BME280;68526;44.600;26.032;2024-01-27T01:06:41;100892.41;;;-1.06;79.73
79123;BME280;68526;44.600;26.032;2024-01-27T01:06:58;100892.63;;;-1.08;80.33
79123;BME280;68526;44.600;26.032;2024-01-27T01:07:14;100887.03;;;-1.06;80.07
79123;BME280;68526;44.600;26.032;2024-01-27T01:07:30;100886.78;;;-1.05;79.71
79123;BME280;68526;44.600;26.032;2024-01-27T01:07:47;100888.19;;;-1.02;79.92
79123;BME280;68526;44.600;26.032;2024-01-27T01:08:03;100880.94;;;-1.02;80.01
79123;BME280;68526;44.600;26.032;2024-01-27T01:08:19;100886.09;;;-1.00;79.70
79123;BME280;68526;44.600;26.032;2024-01-27T01:08:35;100881.53;;;-1.00;79.58
79123;BME280;68526;44.600;26.032;2024-01-27T01:08:51;100883.41;;;-1.00;79.95
79123;BME280;68526;44.600;26.032;2024-01-27T01:09:09;100886.91;;;-1.00;79.98
79123;BME280;68526;44.600;26.032;2024-01-27T01:09:25;100880.94;;;-1.02;79.42
79123;BME280;68526;44.600;26.032;2024-01-27T01:09:41;100889.13;;;-0.97;79.58
79123;BME280;68526;44.600;26.032;2024-01-27T01:09:57;100891.00;;;-0.97;79.81
79123;BME280;68526;44.600;26.032;2024-01-27T01:10:13;100887.94;;;-1.01;79.81
79123;BME280;68526;44.600;26.032;2024-01-27T01:10:29;100889.63;;;-1.00;79.93
79123;BME280;68526;44.600;26.032;2024-01-27T01:10:45;100893.44;;;-1.08;80.14
79123;BME280;68526;44.600;26.032;2024-01-27T01:11:03;100892.28;;;-1.12;79.84
79123;BME280;68526;44.600;26.032;2024-01-27T01:11:18;100895.53;;;-1.10;80.10
79123;BME280;68526;44.600;26.032;2024-01-27T01:11:34;100893.53;;;-1.14;80.46
79123;BME280;68526;44.600;26.032;2024-01-27T01:11:50;100894.13;;;-1.12;80.09
79123;BME280;68526;44.600;26.032;2024-01-27T01:12:06;100889.09;;;-1.09;80.04
79123;BME280;68526;44.600;26.032;2024-01-27T01:12:22;100896.34;;;-1.09;80.19
79123;BME280;68526;44.600;26.032;2024-01-27T01:12:39;100893.44;;;-1.08;80.10
79123;BME280;68526;44.600;26.032;2024-01-27T01:12:56;100886.66;;;-1.10;80.06
79123;BME280;68526;44.600;26.032;2024-01-27T01:13:12;100885.59;;;-1.09;80.35
79123;BME280;68526;44.600;26.032;2024-01-27T01:13:27;100893.44;;;-1.08;80.50
79123;BME280;68526;44.600;26.032;2024-01-27T01:13:43;100890.63;;;-1.13;80.28
79123;BME280;68526;44.600;26.032;2024-01-27T01:13:59;100889.09;;;-1.09;80.57
79123;BME280;68526;44.600;26.032;2024-01-27T01:14:15;100895.78;;;-1.11;80.22
79123;BME280;68526;44.600;26.032;2024-01-27T01:14:31;100891.44;;;-1.12;80.42
79123;BME280;68526;44.600;26.032;2024-01-27T01:14:49;100887.34;;;-1.15;80.48
79123;BME280;68526;44.600;26.032;2024-01-27T01:15:06;100893.19;;;-1.18;80.73
79123;BME280;68526;44.600;26.032;2024-01-27T01:15:22;100891.53;;;-1.19;80.95
79123;BME280;68526;44.600;26.032;2024-01-27T01:15:38;100890.50;;;-1.18;80.78
79123;BME280;68526;44.600;26.032;2024-01-27T01:15:55;100895.41;;;-1.15;80.70
79123;BME280;68526;44.600;26.032;2024-01-27T01:16:10;100894.72;;;-1.10;80.40
79123;BME280;68526;44.600;26.032;2024-01-27T01:16:26;100881.28;;;-1.10;80.50
79123;BME280;68526;44.600;26.032;2024-01-27T01:16:43;100884.34;;;-1.06;80.59
79123;BME280;68526;44.600;26.032;2024-01-27T01:16:59;100872.84;;;-1.14;80.42
79123;BME280;68526;44.600;26.032;2024-01-27T01:17:15;100882.81;;;-1.02;80.39
79123;BME280;68526;44.600;26.032;2024-01-27T01:17:34;100887.94;;;-1.01;80.18
79123;BME280;68526;44.600;26.032;2024-01-27T01:17:50;100880.13;;;-1.02;80.57
79123;BME280;68526;44.600;26.032;2024-01-27T01:18:06;100885.88;;;-0.99;80.44
79123;BME280;68526;44.600;26.032;2024-01-27T01:18:22;100892.06;;;-0.98;80.23
79123;BME280;68526;44.600;26.032;2024-01-27T01:18:39;100886.44;;;-0.97;80.61
79123;BME280;68526;44.600;26.032;2024-01-27T01:18:55;100884.56;;;-0.96;80.51
79123;BME280;68526;44.600;26.032;2024-01-27T01:19:11;100886.22;;;-0.95;80.28
79123;BME280;68526;44.600;26.032;2024-01-27T01:19:27;100888.91;;;-0.95;80.27
79123;BME280;68526;44.600;26.032;2024-01-27T01:19:42;100863.66;;;-1.06;80.28
79123;BME280;68526;44.600;26.032;2024-01-27T01:19:58;100887.25;;;-0.96;80.60
79123;BME280;68526;44.600;26.032;2024-01-27T01:20:18;100880.50;;;-0.99;80.52
79123;BME280;68526;44.600;26.032;2024-01-27T01:20:34;100888.78;;;-1.00;80.48
79123;BME280;68526;44.600;26.032;2024-01-27T01:20:50;100883.41;;;-1.00;80.96
79123;BME280;68526;44.600;26.032;2024-01-27T01:21:07;100884.56;;;-0.96;80.81
79123;BME280;68526;44.600;26.032;2024-01-27T01:21:23;100879.44;;;-0.98;80.48
79123;BME280;68526;44.600;26.032;2024-01-27T01:21:39;100884.44;;;-1.01;80.84
79123;BME280;68526;44.600;26.032;2024-01-27T01:21:55;100879.66;;;-0.99;80.82
79123;BME280;68526;44.600;26.032;2024-01-27T01:22:11;100876.28;;;-0.95;80.95
79123;BME280;68526;44.600;26.032;2024-01-27T01:22:28;100873.59;;;-0.95;81.05
79123;BME280;68526;44.600;26.032;2024-01-27T01:22:44;100876.88;;;-0.93;80.50
79123;BME280;68526;44.600;26.032;2024-01-27T01:23:00;100880.38;;;-0.92;80.75
79123;BME280;68526;44.600;26.032;2024-01-27T01:23:16;100869.25;;;-0.96;80.81
79123;BME280;68526;44.600;26.032;2024-01-27T01:23:32;100877.44;;;-0.91;80.39
79123;BME280;68526;44.600;26.032;2024-01-27T01:23:48;100874.53;;;-0.89;80.47
79123;BME280;68526;44.600;26.032;2024-01-27T01:24:04;100878.06;;;-0.89;80.61